Mississippi River (Missouri), Grafton (05587450)

StateMissouriLatestUnknown (0 cfs)
RiverMississippi RiverRatingObservedEstimated
Updated2020-02-25 15:30 (21 minutes ago)Flood - The river is flooding. Obstacles can be treacherous or deadly. The river should be avoided at this stage for casual trips and definitely for the inexperienced. Trips should be attempted only with protective gear and equipment.Flood(none)(none)
Discharge(none) (median: 112000 cfs)High - The river is high and potentially dangerous, especially for the young and / or inexperienced. Normal stream obstacles are sometimes difficult to navigate. Extended distances can be attempted, but canoe travel may not be advisable.High(none)(none)
Height15.94 feetGood - Conditions are ideal for a canoe or kayak. Boats typically will drag on fewer than one-quarter of riffles, if at all, and portages are unnecessary or rare. Normal float lengths can be attempted without a problem.Good(none)(none)
TrendFalling (steady over 24 hours)Low - River is low but can still be floated. Some riffles are okay but most come with significant dragging and might need a portage. Float lengths should be reduced to accommodate low flow, dragging, and portages.Low(none)(none)
USGSExternal icon USGS Site (External icon Google Maps)Poor - River is too low to float comfortably. Most or all riffles will drag or must be portaged and some obstacles (such as slick shelf rock) cause undue problems. Avoid the river at this stage for casual paddling trips.Poor(none)(none)

Trending Data

Plot Image

Trips for Mississippi River (Missouri), Grafton (05587450)

DateStartEndDistanceConditionDischargeHeightFishingDetails

A total of 0 rows are displayed.

Condition Descriptions

Fishing Conditions

Fish Species

Notes

Classic Trip List

The classic River Trips application is still available for use. It is updated with the new system using a data retrofit. It is no longer maintained. The original River Trips application is no longer updated (as of 1 Dec 2016) but can be checked for errors or for the condition of the data before it was converted to the new system.

Gauge Data Table

ObservationHeightDischargeMaximum
Discharge
Minimum
Discharge
Mean
Discharge
P05P10P20P25P50
(Median)
P75P80P90P95
2020-02-25 15:30 15.94 240000 (1997) 34200 (2003) 119000 41300 47500 75100 79300 112000 148000 174000 225000 237000
2020-02-25 15:00 15.95 167000 240000 (1997) 34200 (2003) 119000 41300 47500 75100 79300 112000 148000 174000 225000 237000
2020-02-25 14:30 15.95 240000 (1997) 34200 (2003) 119000 41300 47500 75100 79300 112000 148000 174000 225000 237000
2020-02-25 14:00 15.97 169000 240000 (1997) 34200 (2003) 119000 41300 47500 75100 79300 112000 148000 174000 225000 237000
2020-02-25 13:30 15.96 167000 240000 (1997) 34200 (2003) 119000 41300 47500 75100 79300 112000 148000 174000 225000 237000
2020-02-25 13:00 15.98 240000 (1997) 34200 (2003) 119000 41300 47500 75100 79300 112000 148000 174000 225000 237000
2020-02-25 12:30 15.97 168000 240000 (1997) 34200 (2003) 119000 41300 47500 75100 79300 112000 148000 174000 225000 237000
2020-02-25 12:00 15.99 240000 (1997) 34200 (2003) 119000 41300 47500 75100 79300 112000 148000 174000 225000 237000
2020-02-25 11:30 15.96 164000 240000 (1997) 34200 (2003) 119000 41300 47500 75100 79300 112000 148000 174000 225000 237000
2020-02-25 11:00 15.98 166000 240000 (1997) 34200 (2003) 119000 41300 47500 75100 79300 112000 148000 174000 225000 237000
2020-02-25 10:30 15.96 164000 240000 (1997) 34200 (2003) 119000 41300 47500 75100 79300 112000 148000 174000 225000 237000
2020-02-25 10:00 15.96 164000 240000 (1997) 34200 (2003) 119000 41300 47500 75100 79300 112000 148000 174000 225000 237000
2020-02-25 09:30 15.96 165000 240000 (1997) 34200 (2003) 119000 41300 47500 75100 79300 112000 148000 174000 225000 237000
2020-02-25 09:00 15.96 164000 240000 (1997) 34200 (2003) 119000 41300 47500 75100 79300 112000 148000 174000 225000 237000
2020-02-25 08:30 15.96 165000 240000 (1997) 34200 (2003) 119000 41300 47500 75100 79300 112000 148000 174000 225000 237000
2020-02-25 08:00 15.94 240000 (1997) 34200 (2003) 119000 41300 47500 75100 79300 112000 148000 174000 225000 237000
2020-02-25 07:30 15.93 240000 (1997) 34200 (2003) 119000 41300 47500 75100 79300 112000 148000 174000 225000 237000
2020-02-25 07:00 15.94 166000 240000 (1997) 34200 (2003) 119000 41300 47500 75100 79300 112000 148000 174000 225000 237000
2020-02-25 06:30 15.95 167000 240000 (1997) 34200 (2003) 119000 41300 47500 75100 79300 112000 148000 174000 225000 237000
2020-02-25 06:00 15.95 167000 240000 (1997) 34200 (2003) 119000 41300 47500 75100 79300 112000 148000 174000 225000 237000
2020-02-25 05:30 15.95 240000 (1997) 34200 (2003) 119000 41300 47500 75100 79300 112000 148000 174000 225000 237000
2020-02-25 05:00 15.96 168000 240000 (1997) 34200 (2003) 119000 41300 47500 75100 79300 112000 148000 174000 225000 237000
2020-02-25 04:30 15.97 169000 240000 (1997) 34200 (2003) 119000 41300 47500 75100 79300 112000 148000 174000 225000 237000
2020-02-25 04:00 15.97 240000 (1997) 34200 (2003) 119000 41300 47500 75100 79300 112000 148000 174000 225000 237000
2020-02-25 03:30 15.98 170000 240000 (1997) 34200 (2003) 119000 41300 47500 75100 79300 112000 148000 174000 225000 237000
2020-02-25 03:00 15.99 171000 240000 (1997) 34200 (2003) 119000 41300 47500 75100 79300 112000 148000 174000 225000 237000
2020-02-25 02:30 16.00 240000 (1997) 34200 (2003) 119000 41300 47500 75100 79300 112000 148000 174000 225000 237000
2020-02-25 02:00 16.00 172000 240000 (1997) 34200 (2003) 119000 41300 47500 75100 79300 112000 148000 174000 225000 237000
2020-02-25 01:30 16.02 240000 (1997) 34200 (2003) 119000 41300 47500 75100 79300 112000 148000 174000 225000 237000
2020-02-25 01:00 16.01 171000 240000 (1997) 34200 (2003) 119000 41300 47500 75100 79300 112000 148000 174000 225000 237000
2020-02-25 00:30 16.03 240000 (1997) 34200 (2003) 119000 41300 47500 75100 79300 112000 148000 174000 225000 237000
2020-02-25 00:00 16.03 171000 240000 (1997) 34200 (2003) 119000 41300 47500 75100 79300 112000 148000 174000 225000 237000
2020-02-24 23:30 16.05 237000 (2011) 33300 (2003) 117000 39300 46400 60300 76000 105000 152000 168000 206000 233000
2020-02-24 23:00 16.05 237000 (2011) 33300 (2003) 117000 39300 46400 60300 76000 105000 152000 168000 206000 233000
2020-02-24 22:30 16.04 168000 237000 (2011) 33300 (2003) 117000 39300 46400 60300 76000 105000 152000 168000 206000 233000
2020-02-24 22:00 16.05 169000 237000 (2011) 33300 (2003) 117000 39300 46400 60300 76000 105000 152000 168000 206000 233000
2020-02-24 21:30 16.04 169000 237000 (2011) 33300 (2003) 117000 39300 46400 60300 76000 105000 152000 168000 206000 233000
2020-02-24 21:00 16.02 169000 237000 (2011) 33300 (2003) 117000 39300 46400 60300 76000 105000 152000 168000 206000 233000
2020-02-24 20:30 16.01 237000 (2011) 33300 (2003) 117000 39300 46400 60300 76000 105000 152000 168000 206000 233000
2020-02-24 20:00 16.00 169000 237000 (2011) 33300 (2003) 117000 39300 46400 60300 76000 105000 152000 168000 206000 233000
2020-02-24 19:30 16.01 237000 (2011) 33300 (2003) 117000 39300 46400 60300 76000 105000 152000 168000 206000 233000
2020-02-24 19:00 15.98 167000 237000 (2011) 33300 (2003) 117000 39300 46400 60300 76000 105000 152000 168000 206000 233000
2020-02-24 18:30 15.98 167000 237000 (2011) 33300 (2003) 117000 39300 46400 60300 76000 105000 152000 168000 206000 233000
2020-02-24 18:00 15.97 166000 237000 (2011) 33300 (2003) 117000 39300 46400 60300 76000 105000 152000 168000 206000 233000
2020-02-24 17:30 15.98 168000 237000 (2011) 33300 (2003) 117000 39300 46400 60300 76000 105000 152000 168000 206000 233000
2020-02-24 17:00 15.98 168000 237000 (2011) 33300 (2003) 117000 39300 46400 60300 76000 105000 152000 168000 206000 233000
2020-02-24 16:30 15.98 168000 237000 (2011) 33300 (2003) 117000 39300 46400 60300 76000 105000 152000 168000 206000 233000
2020-02-24 16:00 15.98 167000 237000 (2011) 33300 (2003) 117000 39300 46400 60300 76000 105000 152000 168000 206000 233000
2020-02-24 15:30 15.98 237000 (2011) 33300 (2003) 117000 39300 46400 60300 76000 105000 152000 168000 206000 233000
2020-02-24 15:00 15.99 237000 (2011) 33300 (2003) 117000 39300 46400 60300 76000 105000 152000 168000 206000 233000
2020-02-24 14:30 16.01 237000 (2011) 33300 (2003) 117000 39300 46400 60300 76000 105000 152000 168000 206000 233000
2020-02-24 14:00 15.99 237000 (2011) 33300 (2003) 117000 39300 46400 60300 76000 105000 152000 168000 206000 233000
2020-02-24 13:30 15.96 156000 237000 (2011) 33300 (2003) 117000 39300 46400 60300 76000 105000 152000 168000 206000 233000
2020-02-24 13:00 15.97 157000 237000 (2011) 33300 (2003) 117000 39300 46400 60300 76000 105000 152000 168000 206000 233000
2020-02-24 12:30 15.96 156000 237000 (2011) 33300 (2003) 117000 39300 46400 60300 76000 105000 152000 168000 206000 233000
2020-02-24 12:00 15.94 153000 237000 (2011) 33300 (2003) 117000 39300 46400 60300 76000 105000 152000 168000 206000 233000
2020-02-24 11:30 15.94 153000 237000 (2011) 33300 (2003) 117000 39300 46400 60300 76000 105000 152000 168000 206000 233000
2020-02-24 11:00 15.92 151000 237000 (2011) 33300 (2003) 117000 39300 46400 60300 76000 105000 152000 168000 206000 233000
2020-02-24 10:30 15.95 237000 (2011) 33300 (2003) 117000 39300 46400 60300 76000 105000 152000 168000 206000 233000
2020-02-24 10:00 15.93 152000 237000 (2011) 33300 (2003) 117000 39300 46400 60300 76000 105000 152000 168000 206000 233000
2020-02-24 09:30 15.93 237000 (2011) 33300 (2003) 117000 39300 46400 60300 76000 105000 152000 168000 206000 233000
2020-02-24 09:00 15.91 150000 237000 (2011) 33300 (2003) 117000 39300 46400 60300 76000 105000 152000 168000 206000 233000
2020-02-24 08:30 15.91 151000 237000 (2011) 33300 (2003) 117000 39300 46400 60300 76000 105000 152000 168000 206000 233000
2020-02-24 08:00 15.90 150000 237000 (2011) 33300 (2003) 117000 39300 46400 60300 76000 105000 152000 168000 206000 233000
2020-02-24 07:30 15.90 149000 237000 (2011) 33300 (2003) 117000 39300 46400 60300 76000 105000 152000 168000 206000 233000
2020-02-24 07:00 15.91 237000 (2011) 33300 (2003) 117000 39300 46400 60300 76000 105000 152000 168000 206000 233000
2020-02-24 06:30 15.90 149000 237000 (2011) 33300 (2003) 117000 39300 46400 60300 76000 105000 152000 168000 206000 233000
2020-02-24 06:00 15.91 237000 (2011) 33300 (2003) 117000 39300 46400 60300 76000 105000 152000 168000 206000 233000
2020-02-24 05:30 15.90 149000 237000 (2011) 33300 (2003) 117000 39300 46400 60300 76000 105000 152000 168000 206000 233000
2020-02-24 05:00 15.89 148000 237000 (2011) 33300 (2003) 117000 39300 46400 60300 76000 105000 152000 168000 206000 233000
2020-02-24 04:30 15.88 237000 (2011) 33300 (2003) 117000 39300 46400 60300 76000 105000 152000 168000 206000 233000
2020-02-24 04:00 15.89 237000 (2011) 33300 (2003) 117000 39300 46400 60300 76000 105000 152000 168000 206000 233000
2020-02-24 03:30 15.89 237000 (2011) 33300 (2003) 117000 39300 46400 60300 76000 105000 152000 168000 206000 233000
2020-02-24 03:00 15.87 146000 237000 (2011) 33300 (2003) 117000 39300 46400 60300 76000 105000 152000 168000 206000 233000
2020-02-24 02:30 15.87 146000 237000 (2011) 33300 (2003) 117000 39300 46400 60300 76000 105000 152000 168000 206000 233000
2020-02-24 02:00 15.87 146000 237000 (2011) 33300 (2003) 117000 39300 46400 60300 76000 105000 152000 168000 206000 233000
2020-02-24 01:30 15.87 146000 237000 (2011) 33300 (2003) 117000 39300 46400 60300 76000 105000 152000 168000 206000 233000
2020-02-24 01:00 15.87 146000 237000 (2011) 33300 (2003) 117000 39300 46400 60300 76000 105000 152000 168000 206000 233000
2020-02-24 00:30 15.88 237000 (2011) 33300 (2003) 117000 39300 46400 60300 76000 105000 152000 168000 206000 233000
2020-02-24 00:00 15.88 237000 (2011) 33300 (2003) 117000 39300 46400 60300 76000 105000 152000 168000 206000 233000
2020-02-23 23:30 15.87 145000 239000 (2011) 36800 (2003) 114000 37600 39800 61400 71500 108000 143000 152000 205000 232000
2020-02-23 23:00 15.86 143000 239000 (2011) 36800 (2003) 114000 37600 39800 61400 71500 108000 143000 152000 205000 232000
2020-02-23 22:30 15.85 142000 239000 (2011) 36800 (2003) 114000 37600 39800 61400 71500 108000 143000 152000 205000 232000
2020-02-23 22:00 15.85 239000 (2011) 36800 (2003) 114000 37600 39800 61400 71500 108000 143000 152000 205000 232000
2020-02-23 21:30 15.84 141000 239000 (2011) 36800 (2003) 114000 37600 39800 61400 71500 108000 143000 152000 205000 232000
2020-02-23 21:00 15.83 140000 239000 (2011) 36800 (2003) 114000 37600 39800 61400 71500 108000 143000 152000 205000 232000
2020-02-23 20:30 15.82 140000 239000 (2011) 36800 (2003) 114000 37600 39800 61400 71500 108000 143000 152000 205000 232000
2020-02-23 20:00 15.82 239000 (2011) 36800 (2003) 114000 37600 39800 61400 71500 108000 143000 152000 205000 232000
2020-02-23 19:30 15.81 139000 239000 (2011) 36800 (2003) 114000 37600 39800 61400 71500 108000 143000 152000 205000 232000
2020-02-23 19:00 15.80 138000 239000 (2011) 36800 (2003) 114000 37600 39800 61400 71500 108000 143000 152000 205000 232000
2020-02-23 18:30 15.79 137000 239000 (2011) 36800 (2003) 114000 37600 39800 61400 71500 108000 143000 152000 205000 232000
2020-02-23 18:00 15.79 239000 (2011) 36800 (2003) 114000 37600 39800 61400 71500 108000 143000 152000 205000 232000
2020-02-23 17:30 15.78 239000 (2011) 36800 (2003) 114000 37600 39800 61400 71500 108000 143000 152000 205000 232000
2020-02-23 17:00 15.77 135000 239000 (2011) 36800 (2003) 114000 37600 39800 61400 71500 108000 143000 152000 205000 232000
2020-02-23 16:30 15.76 134000 239000 (2011) 36800 (2003) 114000 37600 39800 61400 71500 108000 143000 152000 205000 232000
2020-02-23 16:00 15.76 239000 (2011) 36800 (2003) 114000 37600 39800 61400 71500 108000 143000 152000 205000 232000
2020-02-23 15:30 15.75 133000 239000 (2011) 36800 (2003) 114000 37600 39800 61400 71500 108000 143000 152000 205000 232000
2020-02-23 15:00 15.74 239000 (2011) 36800 (2003) 114000 37600 39800 61400 71500 108000 143000 152000 205000 232000
2020-02-23 14:30 15.73 239000 (2011) 36800 (2003) 114000 37600 39800 61400 71500 108000 143000 152000 205000 232000
2020-02-23 14:00 15.73 132000 239000 (2011) 36800 (2003) 114000 37600 39800 61400 71500 108000 143000 152000 205000 232000
2020-02-23 13:30 15.75 134000 239000 (2011) 36800 (2003) 114000 37600 39800 61400 71500 108000 143000 152000 205000 232000
2020-02-23 13:00 15.74 133000 239000 (2011) 36800 (2003) 114000 37600 39800 61400 71500 108000 143000 152000 205000 232000
2020-02-23 12:30 15.74 133000 239000 (2011) 36800 (2003) 114000 37600 39800 61400 71500 108000 143000 152000 205000 232000
2020-02-23 12:00 15.73 132000 239000 (2011) 36800 (2003) 114000 37600 39800 61400 71500 108000 143000 152000 205000 232000
2020-02-23 11:30 15.74 133000 239000 (2011) 36800 (2003) 114000 37600 39800 61400 71500 108000 143000 152000 205000 232000
2020-02-23 11:00 15.75 134000 239000 (2011) 36800 (2003) 114000 37600 39800 61400 71500 108000 143000 152000 205000 232000
2020-02-23 10:30 15.74 133000 239000 (2011) 36800 (2003) 114000 37600 39800 61400 71500 108000 143000 152000 205000 232000
2020-02-23 10:00 15.74 133000 239000 (2011) 36800 (2003) 114000 37600 39800 61400 71500 108000 143000 152000 205000 232000
2020-02-23 09:30 15.75 133000 239000 (2011) 36800 (2003) 114000 37600 39800 61400 71500 108000 143000 152000 205000 232000
2020-02-23 09:00 15.74 133000 239000 (2011) 36800 (2003) 114000 37600 39800 61400 71500 108000 143000 152000 205000 232000
2020-02-23 08:30 15.74 133000 239000 (2011) 36800 (2003) 114000 37600 39800 61400 71500 108000 143000 152000 205000 232000
2020-02-23 08:00 15.74 133000 239000 (2011) 36800 (2003) 114000 37600 39800 61400 71500 108000 143000 152000 205000 232000
2020-02-23 07:30 15.75 134000 239000 (2011) 36800 (2003) 114000 37600 39800 61400 71500 108000 143000 152000 205000 232000
2020-02-23 07:00 15.75 239000 (2011) 36800 (2003) 114000 37600 39800 61400 71500 108000 143000 152000 205000 232000
2020-02-23 06:30 15.74 132000 239000 (2011) 36800 (2003) 114000 37600 39800 61400 71500 108000 143000 152000 205000 232000
2020-02-23 06:00 15.75 134000 239000 (2011) 36800 (2003) 114000 37600 39800 61400 71500 108000 143000 152000 205000 232000
2020-02-23 05:30 15.75 134000 239000 (2011) 36800 (2003) 114000 37600 39800 61400 71500 108000 143000 152000 205000 232000
2020-02-23 05:00 15.75 133000 239000 (2011) 36800 (2003) 114000 37600 39800 61400 71500 108000 143000 152000 205000 232000
2020-02-23 04:30 15.73 239000 (2011) 36800 (2003) 114000 37600 39800 61400 71500 108000 143000 152000 205000 232000
2020-02-23 04:00 15.75 133000 239000 (2011) 36800 (2003) 114000 37600 39800 61400 71500 108000 143000 152000 205000 232000
2020-02-23 03:30 15.75 239000 (2011) 36800 (2003) 114000 37600 39800 61400 71500 108000 143000 152000 205000 232000
2020-02-23 03:00 15.75 239000 (2011) 36800 (2003) 114000 37600 39800 61400 71500 108000 143000 152000 205000 232000
2020-02-23 02:30 15.75 133000 239000 (2011) 36800 (2003) 114000 37600 39800 61400 71500 108000 143000 152000 205000 232000
2020-02-23 02:00 15.75 133000 239000 (2011) 36800 (2003) 114000 37600 39800 61400 71500 108000 143000 152000 205000 232000
2020-02-23 01:30 15.75 133000 239000 (2011) 36800 (2003) 114000 37600 39800 61400 71500 108000 143000 152000 205000 232000
2020-02-23 01:00 15.75 133000 239000 (2011) 36800 (2003) 114000 37600 39800 61400 71500 108000 143000 152000 205000 232000
2020-02-23 00:30 15.75 134000 239000 (2011) 36800 (2003) 114000 37600 39800 61400 71500 108000 143000 152000 205000 232000
2020-02-23 00:00 15.74 132000 239000 (2011) 36800 (2003) 114000 37600 39800 61400 71500 108000 143000 152000 205000 232000
2020-02-22 23:30 15.75 134000 234000 (2011) 29400 (2006) 108000 33300 40400 56400 71200 103000 144000 145000 192000 228000
2020-02-22 23:00 15.74 133000 234000 (2011) 29400 (2006) 108000 33300 40400 56400 71200 103000 144000 145000 192000 228000
2020-02-22 22:30 15.74 133000 234000 (2011) 29400 (2006) 108000 33300 40400 56400 71200 103000 144000 145000 192000 228000
2020-02-22 22:00 15.74 133000 234000 (2011) 29400 (2006) 108000 33300 40400 56400 71200 103000 144000 145000 192000 228000
2020-02-22 21:30 15.74 133000 234000 (2011) 29400 (2006) 108000 33300 40400 56400 71200 103000 144000 145000 192000 228000
2020-02-22 21:00 15.74 134000 234000 (2011) 29400 (2006) 108000 33300 40400 56400 71200 103000 144000 145000 192000 228000
2020-02-22 20:30 15.74 234000 (2011) 29400 (2006) 108000 33300 40400 56400 71200 103000 144000 145000 192000 228000
2020-02-22 20:00 15.73 133000 234000 (2011) 29400 (2006) 108000 33300 40400 56400 71200 103000 144000 145000 192000 228000
2020-02-22 19:30 15.72 132000 234000 (2011) 29400 (2006) 108000 33300 40400 56400 71200 103000 144000 145000 192000 228000
2020-02-22 19:00 15.71 131000 234000 (2011) 29400 (2006) 108000 33300 40400 56400 71200 103000 144000 145000 192000 228000
2020-02-22 18:30 15.71 131000 234000 (2011) 29400 (2006) 108000 33300 40400 56400 71200 103000 144000 145000 192000 228000
2020-02-22 18:00 15.73 234000 (2011) 29400 (2006) 108000 33300 40400 56400 71200 103000 144000 145000 192000 228000
2020-02-22 17:30 15.70 131000 234000 (2011) 29400 (2006) 108000 33300 40400 56400 71200 103000 144000 145000 192000 228000
2020-02-22 17:00 15.70 131000 234000 (2011) 29400 (2006) 108000 33300 40400 56400 71200 103000 144000 145000 192000 228000
2020-02-22 16:30 15.70 131000 234000 (2011) 29400 (2006) 108000 33300 40400 56400 71200 103000 144000 145000 192000 228000
2020-02-22 16:00 15.70 234000 (2011) 29400 (2006) 108000 33300 40400 56400 71200 103000 144000 145000 192000 228000
2020-02-22 15:30 15.69 234000 (2011) 29400 (2006) 108000 33300 40400 56400 71200 103000 144000 145000 192000 228000
2020-02-22 15:00 15.68 129000 234000 (2011) 29400 (2006) 108000 33300 40400 56400 71200 103000 144000 145000 192000 228000
2020-02-22 14:30 15.68 234000 (2011) 29400 (2006) 108000 33300 40400 56400 71200 103000 144000 145000 192000 228000
2020-02-22 14:00 15.67 128000 234000 (2011) 29400 (2006) 108000 33300 40400 56400 71200 103000 144000 145000 192000 228000
2020-02-22 13:30 15.65 126000 234000 (2011) 29400 (2006) 108000 33300 40400 56400 71200 103000 144000 145000 192000 228000
2020-02-22 13:00 15.67 234000 (2011) 29400 (2006) 108000 33300 40400 56400 71200 103000 144000 145000 192000 228000
2020-02-22 12:30 15.66 234000 (2011) 29400 (2006) 108000 33300 40400 56400 71200 103000 144000 145000 192000 228000
2020-02-22 12:00 15.65 126000 234000 (2011) 29400 (2006) 108000 33300 40400 56400 71200 103000 144000 145000 192000 228000
2020-02-22 11:30 15.59 234000 (2011) 29400 (2006) 108000 33300 40400 56400 71200 103000 144000 145000 192000 228000
2020-02-22 11:00 15.66 234000 (2011) 29400 (2006) 108000 33300 40400 56400 71200 103000 144000 145000 192000 228000
2020-02-22 10:30 15.66 128000 234000 (2011) 29400 (2006) 108000 33300 40400 56400 71200 103000 144000 145000 192000 228000
2020-02-22 10:00 15.66 128000 234000 (2011) 29400 (2006) 108000 33300 40400 56400 71200 103000 144000 145000 192000 228000
2020-02-22 09:30 15.65 126000 234000 (2011) 29400 (2006) 108000 33300 40400 56400 71200 103000 144000 145000 192000 228000
2020-02-22 09:00 15.65 234000 (2011) 29400 (2006) 108000 33300 40400 56400 71200 103000 144000 145000 192000 228000
2020-02-22 08:30 15.65 127000 234000 (2011) 29400 (2006) 108000 33300 40400 56400 71200 103000 144000 145000 192000 228000
2020-02-22 08:00 15.65 127000 234000 (2011) 29400 (2006) 108000 33300 40400 56400 71200 103000 144000 145000 192000 228000
2020-02-22 07:30 15.65 234000 (2011) 29400 (2006) 108000 33300 40400 56400 71200 103000 144000 145000 192000 228000
2020-02-22 07:00 15.64 126000 234000 (2011) 29400 (2006) 108000 33300 40400 56400 71200 103000 144000 145000 192000 228000
2020-02-22 06:30 15.64 234000 (2011) 29400 (2006) 108000 33300 40400 56400 71200 103000 144000 145000 192000 228000
2020-02-22 06:00 15.63 125000 234000 (2011) 29400 (2006) 108000 33300 40400 56400 71200 103000 144000 145000 192000 228000
2020-02-22 05:30 15.63 234000 (2011) 29400 (2006) 108000 33300 40400 56400 71200 103000 144000 145000 192000 228000
2020-02-22 05:00 15.62 124000 234000 (2011) 29400 (2006) 108000 33300 40400 56400 71200 103000 144000 145000 192000 228000
2020-02-22 04:30 15.62 124000 234000 (2011) 29400 (2006) 108000 33300 40400 56400 71200 103000 144000 145000 192000 228000
2020-02-22 04:00 15.61 123000 234000 (2011) 29400 (2006) 108000 33300 40400 56400 71200 103000 144000 145000 192000 228000
2020-02-22 03:30 15.61 123000 234000 (2011) 29400 (2006) 108000 33300 40400 56400 71200 103000 144000 145000 192000 228000
2020-02-22 03:00 15.60 121000 234000 (2011) 29400 (2006) 108000 33300 40400 56400 71200 103000 144000 145000 192000 228000
2020-02-22 02:30 15.61 122000 234000 (2011) 29400 (2006) 108000 33300 40400 56400 71200 103000 144000 145000 192000 228000
2020-02-22 02:00 15.61 122000 234000 (2011) 29400 (2006) 108000 33300 40400 56400 71200 103000 144000 145000 192000 228000
2020-02-22 01:30 15.61 122000 234000 (2011) 29400 (2006) 108000 33300 40400 56400 71200 103000 144000 145000 192000 228000
2020-02-22 01:00 15.60 121000 234000 (2011) 29400 (2006) 108000 33300 40400 56400 71200 103000 144000 145000 192000 228000
2020-02-22 00:30 15.60 121000 234000 (2011) 29400 (2006) 108000 33300 40400 56400 71200 103000 144000 145000 192000 228000
2020-02-22 00:00 15.60 122000 234000 (2011) 29400 (2006) 108000 33300 40400 56400 71200 103000 144000 145000 192000 228000
2020-02-21 23:30 15.61 123000 226000 (2011) 36000 (2006) 102000 37900 42300 57600 69500 106000 135000 139000 153000 197000
2020-02-21 23:00 15.61 123000 226000 (2011) 36000 (2006) 102000 37900 42300 57600 69500 106000 135000 139000 153000 197000
2020-02-21 22:30 15.60 122000 226000 (2011) 36000 (2006) 102000 37900 42300 57600 69500 106000 135000 139000 153000 197000
2020-02-21 22:00 15.61 226000 (2011) 36000 (2006) 102000 37900 42300 57600 69500 106000 135000 139000 153000 197000
2020-02-21 21:30 15.61 226000 (2011) 36000 (2006) 102000 37900 42300 57600 69500 106000 135000 139000 153000 197000
2020-02-21 21:00 15.59 121000 226000 (2011) 36000 (2006) 102000 37900 42300 57600 69500 106000 135000 139000 153000 197000
2020-02-21 20:30 15.58 120000 226000 (2011) 36000 (2006) 102000 37900 42300 57600 69500 106000 135000 139000 153000 197000
2020-02-21 20:00 15.57 226000 (2011) 36000 (2006) 102000 37900 42300 57600 69500 106000 135000 139000 153000 197000
2020-02-21 19:30 15.55 117000 226000 (2011) 36000 (2006) 102000 37900 42300 57600 69500 106000 135000 139000 153000 197000
2020-02-21 19:00 15.53 115000 226000 (2011) 36000 (2006) 102000 37900 42300 57600 69500 106000 135000 139000 153000 197000
2020-02-21 18:30 15.52 226000 (2011) 36000 (2006) 102000 37900 42300 57600 69500 106000 135000 139000 153000 197000
2020-02-21 18:00 15.50 113000 226000 (2011) 36000 (2006) 102000 37900 42300 57600 69500 106000 135000 139000 153000 197000
2020-02-21 17:30 15.48 226000 (2011) 36000 (2006) 102000 37900 42300 57600 69500 106000 135000 139000 153000 197000
2020-02-21 17:00 15.45 110000 226000 (2011) 36000 (2006) 102000 37900 42300 57600 69500 106000 135000 139000 153000 197000
2020-02-21 16:30 15.43 226000 (2011) 36000 (2006) 102000 37900 42300 57600 69500 106000 135000 139000 153000 197000
2020-02-21 16:00 15.40 107000 226000 (2011) 36000 (2006) 102000 37900 42300 57600 69500 106000 135000 139000 153000 197000
2020-02-21 15:30 15.35 103000 226000 (2011) 36000 (2006) 102000 37900 42300 57600 69500 106000 135000 139000 153000 197000
2020-02-21 15:00 15.31 226000 (2011) 36000 (2006) 102000 37900 42300 57600 69500 106000 135000 139000 153000 197000
2020-02-21 14:30 15.31 226000 (2011) 36000 (2006) 102000 37900 42300 57600 69500 106000 135000 139000 153000 197000
2020-02-21 14:00 15.32 107000 226000 (2011) 36000 (2006) 102000 37900 42300 57600 69500 106000 135000 139000 153000 197000
2020-02-21 13:30 15.32 226000 (2011) 36000 (2006) 102000 37900 42300 57600 69500 106000 135000 139000 153000 197000
2020-02-21 13:00 15.32 226000 (2011) 36000 (2006) 102000 37900 42300 57600 69500 106000 135000 139000 153000 197000
2020-02-21 12:30 15.34 109000 226000 (2011) 36000 (2006) 102000 37900 42300 57600 69500 106000 135000 139000 153000 197000
2020-02-21 12:00 15.36 111000 226000 (2011) 36000 (2006) 102000 37900 42300 57600 69500 106000 135000 139000 153000 197000
2020-02-21 11:30 15.36 226000 (2011) 36000 (2006) 102000 37900 42300 57600 69500 106000 135000 139000 153000 197000
2020-02-21 11:00 15.37 111000 226000 (2011) 36000 (2006) 102000 37900 42300 57600 69500 106000 135000 139000 153000 197000
2020-02-21 10:30 15.37 226000 (2011) 36000 (2006) 102000 37900 42300 57600 69500 106000 135000 139000 153000 197000
2020-02-21 10:00 15.39 113000 226000 (2011) 36000 (2006) 102000 37900 42300 57600 69500 106000 135000 139000 153000 197000
2020-02-21 09:30 15.39 226000 (2011) 36000 (2006) 102000 37900 42300 57600 69500 106000 135000 139000 153000 197000
2020-02-21 09:00 15.39 226000 (2011) 36000 (2006) 102000 37900 42300 57600 69500 106000 135000 139000 153000 197000
2020-02-21 08:30 15.40 114000 226000 (2011) 36000 (2006) 102000 37900 42300 57600 69500 106000 135000 139000 153000 197000
2020-02-21 08:00 15.42 116000 226000 (2011) 36000 (2006) 102000 37900 42300 57600 69500 106000 135000 139000 153000 197000
2020-02-21 07:30 15.42 226000 (2011) 36000 (2006) 102000 37900 42300 57600 69500 106000 135000 139000 153000 197000
2020-02-21 07:00 15.42 116000 226000 (2011) 36000 (2006) 102000 37900 42300 57600 69500 106000 135000 139000 153000 197000
2020-02-21 06:30 15.42 226000 (2011) 36000 (2006) 102000 37900 42300 57600 69500 106000 135000 139000 153000 197000
2020-02-21 06:00 15.43 117000 226000 (2011) 36000 (2006) 102000 37900 42300 57600 69500 106000 135000 139000 153000 197000
2020-02-21 05:30 15.43 226000 (2011) 36000 (2006) 102000 37900 42300 57600 69500 106000 135000 139000 153000 197000
2020-02-21 05:00 15.44 226000 (2011) 36000 (2006) 102000 37900 42300 57600 69500 106000 135000 139000 153000 197000
2020-02-21 04:30 15.42 226000 (2011) 36000 (2006) 102000 37900 42300 57600 69500 106000 135000 139000 153000 197000
2020-02-21 04:00 15.47 122000 226000 (2011) 36000 (2006) 102000 37900 42300 57600 69500 106000 135000 139000 153000 197000
2020-02-21 03:30 15.48 226000 (2011) 36000 (2006) 102000 37900 42300 57600 69500 106000 135000 139000 153000 197000
2020-02-21 03:00 15.50 124000 226000 (2011) 36000 (2006) 102000 37900 42300 57600 69500 106000 135000 139000 153000 197000
2020-02-21 02:30 15.52 126000 226000 (2011) 36000 (2006) 102000 37900 42300 57600 69500 106000 135000 139000 153000 197000
2020-02-21 02:00 15.54 128000 226000 (2011) 36000 (2006) 102000 37900 42300 57600 69500 106000 135000 139000 153000 197000
2020-02-21 01:30 15.55 226000 (2011) 36000 (2006) 102000 37900 42300 57600 69500 106000 135000 139000 153000 197000
2020-02-21 01:00 15.58 131000 226000 (2011) 36000 (2006) 102000 37900 42300 57600 69500 106000 135000 139000 153000 197000
2020-02-21 00:30 15.60 133000 226000 (2011) 36000 (2006) 102000 37900 42300 57600 69500 106000 135000 139000 153000 197000
2020-02-21 00:00 15.61 226000 (2011) 36000 (2006) 102000 37900 42300 57600 69500 106000 135000 139000 153000 197000
2020-02-20 23:30 15.62 134000 221000 (2011) 37500 (1989) 95700 39700 44700 54400 61700 89300 117000 129000 168000 201000
2020-02-20 23:00 15.62 133000 221000 (2011) 37500 (1989) 95700 39700 44700 54400 61700 89300 117000 129000 168000 201000
2020-02-20 22:30 15.64 221000 (2011) 37500 (1989) 95700 39700 44700 54400 61700 89300 117000 129000 168000 201000
2020-02-20 22:00 15.66 221000 (2011) 37500 (1989) 95700 39700 44700 54400 61700 89300 117000 129000 168000 201000
2020-02-20 21:30 15.63 221000 (2011) 37500 (1989) 95700 39700 44700 54400 61700 89300 117000 129000 168000 201000
2020-02-20 21:00 15.62 130000 221000 (2011) 37500 (1989) 95700 39700 44700 54400 61700 89300 117000 129000 168000 201000
2020-02-20 20:30 15.58 126000 221000 (2011) 37500 (1989) 95700 39700 44700 54400 61700 89300 117000 129000 168000 201000
2020-02-20 20:00 15.56 221000 (2011) 37500 (1989) 95700 39700 44700 54400 61700 89300 117000 129000 168000 201000
2020-02-20 19:30 15.52 121000 221000 (2011) 37500 (1989) 95700 39700 44700 54400 61700 89300 117000 129000 168000 201000
2020-02-20 19:00 15.50 221000 (2011) 37500 (1989) 95700 39700 44700 54400 61700 89300 117000 129000 168000 201000
2020-02-20 18:30 15.45 116000 221000 (2011) 37500 (1989) 95700 39700 44700 54400 61700 89300 117000 129000 168000 201000
2020-02-20 18:00 15.42 114000 221000 (2011) 37500 (1989) 95700 39700 44700 54400 61700 89300 117000 129000 168000 201000
2020-02-20 17:30 15.39 221000 (2011) 37500 (1989) 95700 39700 44700 54400 61700 89300 117000 129000 168000 201000
2020-02-20 17:00 15.37 221000 (2011) 37500 (1989) 95700 39700 44700 54400 61700 89300 117000 129000 168000 201000
2020-02-20 16:30 15.36 221000 (2011) 37500 (1989) 95700 39700 44700 54400 61700 89300 117000 129000 168000 201000
2020-02-20 16:00 15.37 221000 (2011) 37500 (1989) 95700 39700 44700 54400 61700 89300 117000 129000 168000 201000
2020-02-20 15:30 15.38 119000 221000 (2011) 37500 (1989) 95700 39700 44700 54400 61700 89300 117000 129000 168000 201000
2020-02-20 15:00 15.39 120000 221000 (2011) 37500 (1989) 95700 39700 44700 54400 61700 89300 117000 129000 168000 201000
2020-02-20 14:30 15.40 221000 (2011) 37500 (1989) 95700 39700 44700 54400 61700 89300 117000 129000 168000 201000
2020-02-20 14:00 15.42 123000 221000 (2011) 37500 (1989) 95700 39700 44700 54400 61700 89300 117000 129000 168000 201000
2020-02-20 13:30 15.44 125000 221000 (2011) 37500 (1989) 95700 39700 44700 54400 61700 89300 117000 129000 168000 201000
2020-02-20 13:00 15.45 126000 221000 (2011) 37500 (1989) 95700 39700 44700 54400 61700 89300 117000 129000 168000 201000
2020-02-20 12:30 15.45 126000 221000 (2011) 37500 (1989) 95700 39700 44700 54400 61700 89300 117000 129000 168000 201000
2020-02-20 12:00 15.44 221000 (2011) 37500 (1989) 95700 39700 44700 54400 61700 89300 117000 129000 168000 201000
2020-02-20 11:30 15.45 126000 221000 (2011) 37500 (1989) 95700 39700 44700 54400 61700 89300 117000 129000 168000 201000
2020-02-20 11:00 15.46 127000 221000 (2011) 37500 (1989) 95700 39700 44700 54400 61700 89300 117000 129000 168000 201000
2020-02-20 10:30 15.45 221000 (2011) 37500 (1989) 95700 39700 44700 54400 61700 89300 117000 129000 168000 201000
2020-02-20 10:00 15.47 128000 221000 (2011) 37500 (1989) 95700 39700 44700 54400 61700 89300 117000 129000 168000 201000
2020-02-20 09:30 15.48 129000 221000 (2011) 37500 (1989) 95700 39700 44700 54400 61700 89300 117000 129000 168000 201000
2020-02-20 09:00 15.49 130000 221000 (2011) 37500 (1989) 95700 39700 44700 54400 61700 89300 117000 129000 168000 201000
2020-02-20 08:30 15.51 132000 221000 (2011) 37500 (1989) 95700 39700 44700 54400 61700 89300 117000 129000 168000 201000
2020-02-20 08:00 15.50 130000 221000 (2011) 37500 (1989) 95700 39700 44700 54400 61700 89300 117000 129000 168000 201000
2020-02-20 07:30 15.51 131000 221000 (2011) 37500 (1989) 95700 39700 44700 54400 61700 89300 117000 129000 168000 201000
2020-02-20 07:00 15.51 221000 (2011) 37500 (1989) 95700 39700 44700 54400 61700 89300 117000 129000 168000 201000
2020-02-20 06:30 15.52 132000 221000 (2011) 37500 (1989) 95700 39700 44700 54400 61700 89300 117000 129000 168000 201000
2020-02-20 06:00 15.53 221000 (2011) 37500 (1989) 95700 39700 44700 54400 61700 89300 117000 129000 168000 201000
2020-02-20 05:30 15.53 221000 (2011) 37500 (1989) 95700 39700 44700 54400 61700 89300 117000 129000 168000 201000
2020-02-20 05:00 15.55 134000 221000 (2011) 37500 (1989) 95700 39700 44700 54400 61700 89300 117000 129000 168000 201000
2020-02-20 04:30 15.56 135000 221000 (2011) 37500 (1989) 95700 39700 44700 54400 61700 89300 117000 129000 168000 201000
2020-02-20 04:00 15.57 136000 221000 (2011) 37500 (1989) 95700 39700 44700 54400 61700 89300 117000 129000 168000 201000
2020-02-20 03:30 15.58 221000 (2011) 37500 (1989) 95700 39700 44700 54400 61700 89300 117000 129000 168000 201000
2020-02-20 03:00 15.57 136000 221000 (2011) 37500 (1989) 95700 39700 44700 54400 61700 89300 117000 129000 168000 201000
2020-02-20 02:30 15.56 134000 221000 (2011) 37500 (1989) 95700 39700 44700 54400 61700 89300 117000 129000 168000 201000
2020-02-20 02:00 15.53 221000 (2011) 37500 (1989) 95700 39700 44700 54400 61700 89300 117000 129000 168000 201000
2020-02-20 01:30 15.55 221000 (2011) 37500 (1989) 95700 39700 44700 54400 61700 89300 117000 129000 168000 201000
2020-02-20 01:00 15.55 135000 221000 (2011) 37500 (1989) 95700 39700 44700 54400 61700 89300 117000 129000 168000 201000
2020-02-20 00:30 15.55 136000 221000 (2011) 37500 (1989) 95700 39700 44700 54400 61700 89300 117000 129000 168000 201000
2020-02-20 00:00 15.56 137000 221000 (2011) 37500 (1989) 95700 39700 44700 54400 61700 89300 117000 129000 168000 201000
2020-02-19 23:30 15.57 139000 215000 (2011) 39400 (1989) 94200 40000 42000 53300 55000 87200 113000 129000 185000 211000
2020-02-19 23:00 15.58 140000 215000 (2011) 39400 (1989) 94200 40000 42000 53300 55000 87200 113000 129000 185000 211000
2020-02-19 22:30 15.58 215000 (2011) 39400 (1989) 94200 40000 42000 53300 55000 87200 113000 129000 185000 211000
2020-02-19 22:00 15.60 142000 215000 (2011) 39400 (1989) 94200 40000 42000 53300 55000 87200 113000 129000 185000 211000
2020-02-19 21:30 15.61 215000 (2011) 39400 (1989) 94200 40000 42000 53300 55000 87200 113000 129000 185000 211000
2020-02-19 21:00 15.61 215000 (2011) 39400 (1989) 94200 40000 42000 53300 55000 87200 113000 129000 185000 211000
2020-02-19 20:30 15.63 145000 215000 (2011) 39400 (1989) 94200 40000 42000 53300 55000 87200 113000 129000 185000 211000
2020-02-19 20:00 15.65 147000 215000 (2011) 39400 (1989) 94200 40000 42000 53300 55000 87200 113000 129000 185000 211000
2020-02-19 19:30 15.65 215000 (2011) 39400 (1989) 94200 40000 42000 53300 55000 87200 113000 129000 185000 211000
2020-02-19 19:00 15.67 149000 215000 (2011) 39400 (1989) 94200 40000 42000 53300 55000 87200 113000 129000 185000 211000
2020-02-19 18:30 15.70 153000 215000 (2011) 39400 (1989) 94200 40000 42000 53300 55000 87200 113000 129000 185000 211000
2020-02-19 18:00 15.73 157000 215000 (2011) 39400 (1989) 94200 40000 42000 53300 55000 87200 113000 129000 185000 211000
2020-02-19 17:30 15.75 157000 215000 (2011) 39400 (1989) 94200 40000 42000 53300 55000 87200 113000 129000 185000 211000
2020-02-19 17:00 15.77 215000 (2011) 39400 (1989) 94200 40000 42000 53300 55000 87200 113000 129000 185000 211000
2020-02-19 16:30 15.79 215000 (2011) 39400 (1989) 94200 40000 42000 53300 55000 87200 113000 129000 185000 211000
2020-02-19 16:00 15.79 215000 (2011) 39400 (1989) 94200 40000 42000 53300 55000 87200 113000 129000 185000 211000
2020-02-19 15:30 15.79 155000 215000 (2011) 39400 (1989) 94200 40000 42000 53300 55000 87200 113000 129000 185000 211000
2020-02-19 15:00 15.78 154000 215000 (2011) 39400 (1989) 94200 40000 42000 53300 55000 87200 113000 129000 185000 211000
2020-02-19 14:30 15.78 154000 215000 (2011) 39400 (1989) 94200 40000 42000 53300 55000 87200 113000 129000 185000 211000
2020-02-19 14:00 15.78 154000 215000 (2011) 39400 (1989) 94200 40000 42000 53300 55000 87200 113000 129000 185000 211000
2020-02-19 13:30 15.78 155000 215000 (2011) 39400 (1989) 94200 40000 42000 53300 55000 87200 113000 129000 185000 211000
2020-02-19 13:00 15.77 154000 215000 (2011) 39400 (1989) 94200 40000 42000 53300 55000 87200 113000 129000 185000 211000
2020-02-19 12:30 15.76 154000 215000 (2011) 39400 (1989) 94200 40000 42000 53300 55000 87200 113000 129000 185000 211000
2020-02-19 12:00 15.76 154000 215000 (2011) 39400 (1989) 94200 40000 42000 53300 55000 87200 113000 129000 185000 211000
2020-02-19 11:30 15.75 154000 215000 (2011) 39400 (1989) 94200 40000 42000 53300 55000 87200 113000 129000 185000 211000
2020-02-19 11:00 15.75 154000 215000 (2011) 39400 (1989) 94200 40000 42000 53300 55000 87200 113000 129000 185000 211000
2020-02-19 10:30 15.75 154000 215000 (2011) 39400 (1989) 94200 40000 42000 53300 55000 87200 113000 129000 185000 211000
2020-02-19 10:00 15.75 154000 215000 (2011) 39400 (1989) 94200 40000 42000 53300 55000 87200 113000 129000 185000 211000
2020-02-19 09:30 15.75 215000 (2011) 39400 (1989) 94200 40000 42000 53300 55000 87200 113000 129000 185000 211000
2020-02-19 09:00 15.74 215000 (2011) 39400 (1989) 94200 40000 42000 53300 55000 87200 113000 129000 185000 211000
2020-02-19 08:30 15.75 215000 (2011) 39400 (1989) 94200 40000 42000 53300 55000 87200 113000 129000 185000 211000
2020-02-19 08:00 15.76 215000 (2011) 39400 (1989) 94200 40000 42000 53300 55000 87200 113000 129000 185000 211000
2020-02-19 07:30 15.80 162000 215000 (2011) 39400 (1989) 94200 40000 42000 53300 55000 87200 113000 129000 185000 211000
2020-02-19 07:00 15.83 166000 215000 (2011) 39400 (1989) 94200 40000 42000 53300 55000 87200 113000 129000 185000 211000
2020-02-19 06:30 15.89 215000 (2011) 39400 (1989) 94200 40000 42000 53300 55000 87200 113000 129000 185000 211000
2020-02-19 06:00 15.94 215000 (2011) 39400 (1989) 94200 40000 42000 53300 55000 87200 113000 129000 185000 211000
2020-02-19 05:30 15.92 215000 (2011) 39400 (1989) 94200 40000 42000 53300 55000 87200 113000 129000 185000 211000
2020-02-19 05:00 15.91 163000 215000 (2011) 39400 (1989) 94200 40000 42000 53300 55000 87200 113000 129000 185000 211000
2020-02-19 04:30 15.89 215000 (2011) 39400 (1989) 94200 40000 42000 53300 55000 87200 113000 129000 185000 211000
2020-02-19 04:00 15.87 159000 215000 (2011) 39400 (1989) 94200 40000 42000 53300 55000 87200 113000 129000 185000 211000
2020-02-19 03:30 15.86 159000 215000 (2011) 39400 (1989) 94200 40000 42000 53300 55000 87200 113000 129000 185000 211000
2020-02-19 03:00 15.84 157000 215000 (2011) 39400 (1989) 94200 40000 42000 53300 55000 87200 113000 129000 185000 211000
2020-02-19 02:30 15.82 155000 215000 (2011) 39400 (1989) 94200 40000 42000 53300 55000 87200 113000 129000 185000 211000
2020-02-19 02:00 15.80 215000 (2011) 39400 (1989) 94200 40000 42000 53300 55000 87200 113000 129000 185000 211000
2020-02-19 01:30 15.77 215000 (2011) 39400 (1989) 94200 40000 42000 53300 55000 87200 113000 129000 185000 211000
2020-02-19 01:00 15.80 215000 (2011) 39400 (1989) 94200 40000 42000 53300 55000 87200 113000 129000 185000 211000
2020-02-19 00:30 15.79 155000 215000 (2011) 39400 (1989) 94200 40000 42000 53300 55000 87200 113000 129000 185000 211000
2020-02-19 00:00 15.79 215000 (2011) 39400 (1989) 94200 40000 42000 53300 55000 87200 113000 129000 185000 211000
2020-02-18 23:30 15.77 153000 200000 (2005) 37300 (2003) 93900 40700 42400 47600 51800 90400 116000 126000 189000 199000
2020-02-18 23:00 15.77 200000 (2005) 37300 (2003) 93900 40700 42400 47600 51800 90400 116000 126000 189000 199000
2020-02-18 22:30 15.77 200000 (2005) 37300 (2003) 93900 40700 42400 47600 51800 90400 116000 126000 189000 199000
2020-02-18 22:00 15.76 200000 (2005) 37300 (2003) 93900 40700 42400 47600 51800 90400 116000 126000 189000 199000
2020-02-18 21:30 15.73 149000 200000 (2005) 37300 (2003) 93900 40700 42400 47600 51800 90400 116000 126000 189000 199000
2020-02-18 21:00 15.73 200000 (2005) 37300 (2003) 93900 40700 42400 47600 51800 90400 116000 126000 189000 199000
2020-02-18 20:30 15.72 200000 (2005) 37300 (2003) 93900 40700 42400 47600 51800 90400 116000 126000 189000 199000
2020-02-18 20:00 15.70 147000 200000 (2005) 37300 (2003) 93900 40700 42400 47600 51800 90400 116000 126000 189000 199000
2020-02-18 19:30 15.70 200000 (2005) 37300 (2003) 93900 40700 42400 47600 51800 90400 116000 126000 189000 199000
2020-02-18 19:00 15.69 146000 200000 (2005) 37300 (2003) 93900 40700 42400 47600 51800 90400 116000 126000 189000 199000
2020-02-18 18:30 15.68 145000 200000 (2005) 37300 (2003) 93900 40700 42400 47600 51800 90400 116000 126000 189000 199000
2020-02-18 18:00 15.67 144000 200000 (2005) 37300 (2003) 93900 40700 42400 47600 51800 90400 116000 126000 189000 199000
2020-02-18 17:30 15.66 200000 (2005) 37300 (2003) 93900 40700 42400 47600 51800 90400 116000 126000 189000 199000
2020-02-18 17:00 15.68 146000 200000 (2005) 37300 (2003) 93900 40700 42400 47600 51800 90400 116000 126000 189000 199000
2020-02-18 16:30 15.67 200000 (2005) 37300 (2003) 93900 40700 42400 47600 51800 90400 116000 126000 189000 199000
2020-02-18 16:00 15.67 200000 (2005) 37300 (2003) 93900 40700 42400 47600 51800 90400 116000 126000 189000 199000
2020-02-18 15:30 15.69 200000 (2005) 37300 (2003) 93900 40700 42400 47600 51800 90400 116000 126000 189000 199000
2020-02-18 15:00 15.74 200000 (2005) 37300 (2003) 93900 40700 42400 47600 51800 90400 116000 126000 189000 199000
2020-02-18 14:30 15.75 200000 (2005) 37300 (2003) 93900 40700 42400 47600 51800 90400 116000 126000 189000 199000
2020-02-18 14:00 15.80 200000 (2005) 37300 (2003) 93900 40700 42400 47600 51800 90400 116000 126000 189000 199000
2020-02-18 13:30 15.87 166000 200000 (2005) 37300 (2003) 93900 40700 42400 47600 51800 90400 116000 126000 189000 199000
2020-02-18 13:00 15.93 200000 (2005) 37300 (2003) 93900 40700 42400 47600 51800 90400 116000 126000 189000 199000
2020-02-18 12:30 16.07 200000 (2005) 37300 (2003) 93900 40700 42400 47600 51800 90400 116000 126000 189000 199000
2020-02-18 12:00 16.16 200000 (2005) 37300 (2003) 93900 40700 42400 47600 51800 90400 116000 126000 189000 199000
2020-02-18 11:30 16.21 200000 (2005) 37300 (2003) 93900 40700 42400 47600 51800 90400 116000 126000 189000 199000
2020-02-18 11:00 16.25 200000 (2005) 37300 (2003) 93900 40700 42400 47600 51800 90400 116000 126000 189000 199000
2020-02-18 10:30 16.26 158000 200000 (2005) 37300 (2003) 93900 40700 42400 47600 51800 90400 116000 126000 189000 199000
2020-02-18 10:00 16.27 152000 200000 (2005) 37300 (2003) 93900 40700 42400 47600 51800 90400 116000 126000 189000 199000
2020-02-18 09:30 16.27 152000 200000 (2005) 37300 (2003) 93900 40700 42400 47600 51800 90400 116000 126000 189000 199000
2020-02-18 09:00 16.26 151000 200000 (2005) 37300 (2003) 93900 40700 42400 47600 51800 90400 116000 126000 189000 199000
2020-02-18 08:30 16.25 151000 200000 (2005) 37300 (2003) 93900 40700 42400 47600 51800 90400 116000 126000 189000 199000
2020-02-18 08:00 16.22 149000 200000 (2005) 37300 (2003) 93900 40700 42400 47600 51800 90400 116000 126000 189000 199000
2020-02-18 07:30 16.21 149000 200000 (2005) 37300 (2003) 93900 40700 42400 47600 51800 90400 116000 126000 189000 199000
2020-02-18 07:00 16.18 151000 200000 (2005) 37300 (2003) 93900 40700 42400 47600 51800 90400 116000 126000 189000 199000
2020-02-18 06:30 16.17 151000 200000 (2005) 37300 (2003) 93900 40700 42400 47600 51800 90400 116000 126000 189000 199000
2020-02-18 06:00 16.10 200000 (2005) 37300 (2003) 93900 40700 42400 47600 51800 90400 116000 126000 189000 199000
2020-02-18 05:30 16.13 200000 (2005) 37300 (2003) 93900 40700 42400 47600 51800 90400 116000 126000 189000 199000
2020-02-18 05:00 16.13 150000 200000 (2005) 37300 (2003) 93900 40700 42400 47600 51800 90400 116000 126000 189000 199000
2020-02-18 04:30 16.12 153000 200000 (2005) 37300 (2003) 93900 40700 42400 47600 51800 90400 116000 126000 189000 199000
2020-02-18 04:00 16.13 153000 200000 (2005) 37300 (2003) 93900 40700 42400 47600 51800 90400 116000 126000 189000 199000
2020-02-18 03:30 16.11 200000 (2005) 37300 (2003) 93900 40700 42400 47600 51800 90400 116000 126000 189000 199000
2020-02-18 03:00 16.15 152000 200000 (2005) 37300 (2003) 93900 40700 42400 47600 51800 90400 116000 126000 189000 199000
2020-02-18 02:30 16.16 152000 200000 (2005) 37300 (2003) 93900 40700 42400 47600 51800 90400 116000 126000 189000 199000
2020-02-18 02:00 16.14 151000 200000 (2005) 37300 (2003) 93900 40700 42400 47600 51800 90400 116000 126000 189000 199000
2020-02-18 01:30 16.15 151000 200000 (2005) 37300 (2003) 93900 40700 42400 47600 51800 90400 116000 126000 189000 199000
2020-02-18 01:00 16.15 151000 200000 (2005) 37300 (2003) 93900 40700 42400 47600 51800 90400 116000 126000 189000 199000
2020-02-18 00:30 16.14 151000 200000 (2005) 37300 (2003) 93900 40700 42400 47600 51800 90400 116000 126000 189000 199000
2020-02-18 00:00 16.14 151000 200000 (2005) 37300 (2003) 93900 40700 42400 47600 51800 90400 116000 126000 189000 199000

A total of 368 rows are displayed for years 1987 through 2019.